Time;durP1;ratioP1;P1;durP2;ratioP2;P2;SDS_P1;SDS_P2;PMS_P1;PMS_P2;Temp;Humidity;BMP_temperature;BMP_pressure;BME280_temperature;BME280_humidity;BME280_pressure;Samples;Min_cycle;Max_cycle;Signal;HPM_P1;HPM_P2
2023/05/30 00:01:42;;;;;;;;;;;17.10;80.80;;;;;;5021462;28;19916;-75
2023/05/30 00:04:08;;;;;;;;;;;17.10;80.30;;;;;;5015307;28;19958;-76
2023/05/30 00:06:33;;;;;;;;;;;17.20;79.70;;;;;;5029250;28;20394;-75
2023/05/30 00:09:00;;;;;;;;;;;17.20;79.40;;;;;;5014941;28;19917;-76
2023/05/30 00:11:28;;;;;;;;;;;17.20;79.10;;;;;;5036276;28;19940;-75
2023/05/30 00:13:58;;;;;;;;;;;17.10;80.00;;;;;;5022361;28;19920;-75
2023/05/30 00:16:28;;;;;;;;;;;17.10;79.70;;;;;;5038163;28;19910;-75
2023/05/30 00:18:56;;;;;;;;;;;17.10;79.90;;;;;;5026166;28;20369;-75
2023/05/30 00:21:23;;;;;;;;;;;17.00;79.50;;;;;;5024017;28;19909;-76
2023/05/30 00:23:49;;;;;;;;;;;17.00;79.50;;;;;;5024474;28;19965;-76
2023/05/30 00:26:16;;;;;;;;;;;17.00;79.30;;;;;;5021625;28;19913;-75
2023/05/30 00:28:42;;;;;;;;;;;17.00;79.90;;;;;;5028998;28;19913;-76
2023/05/30 00:31:10;;;;;;;;;;;17.00;79.40;;;;;;5027621;28;20468;-76
2023/05/30 00:33:36;;;;;;;;;;;17.00;79.00;;;;;;5021445;28;19909;-75
2023/05/30 00:36:04;;;;;;;;;;;17.00;79.00;;;;;;5024493;28;20110;-75
2023/05/30 00:38:35;;;;;;;;;;;17.00;79.10;;;;;;5028478;28;19928;-75
2023/05/30 00:41:06;;;;;;;;;;;17.10;78.40;;;;;;5044219;28;19909;-75
2023/05/30 00:43:37;;;;;;;;;;;17.10;78.40;;;;;;5026451;28;20004;-75
2023/05/30 00:46:06;;;;;;;;;;;17.10;78.20;;;;;;5022354;28;19920;-76
2023/05/30 00:48:33;;;;;;;;;;;17.10;77.80;;;;;;5026550;28;19920;-75
2023/05/30 00:51:01;;;;;;;;;;;17.10;78.40;;;;;;5037722;28;19917;-76
2023/05/30 00:53:27;;;;;;;;;;;17.20;78.10;;;;;;5018224;28;20013;-75
2023/05/30 00:55:52;;;;;;;;;;;17.20;77.60;;;;;;5027872;28;20381;-75
2023/05/30 00:58:25;;;;;;;;;;;17.20;77.90;;;;;;5020182;28;19917;-75
2023/05/30 01:00:51;;;;;;;;;;;17.20;77.50;;;;;;5018477;28;19909;-75
2023/05/30 01:03:17;;;;;;;;;;;17.20;77.30;;;;;;5035206;28;19920;-75
2023/05/30 01:05:47;;;;;;;;;;;17.30;77.60;;;;;;5025399;28;20000;-75
2023/05/30 01:08:22;;;;;;;;;;;17.20;78.00;;;;;;5017734;28;19920;-75
2023/05/30 01:10:54;;;;;;;;;;;17.20;78.00;;;;;;5020038;28;19916;-75
2023/05/30 01:13:33;;;;;;;;;;;17.20;78.20;;;;;;5019809;28;20309;-76
2023/05/30 01:16:12;;;;;;;;;;;17.10;79.00;;;;;;5018460;28;19917;-76
2023/05/30 01:18:46;;;;;;;;;;;17.00;79.10;;;;;;5019471;28;19932;-76
2023/05/30 01:21:15;;;;;;;;;;;17.00;79.50;;;;;;5022123;28;19956;-75
2023/05/30 01:24:05;;;;;;;;;;;17.00;79.70;;;;;;5020737;28;19945;-75
2023/05/30 01:26:53;;;;;;;;;;;16.90;80.20;;;;;;5021055;28;20376;-75
2023/05/30 01:29:23;;;;;;;;;;;16.80;80.70;;;;;;5040168;28;19913;-75
2023/05/30 01:31:52;;;;;;;;;;;16.80;81.10;;;;;;5018701;28;20031;-76
2023/05/30 01:34:18;;;;;;;;;;;16.70;81.30;;;;;;5036575;28;20235;-76
2023/05/30 01:36:45;;;;;;;;;;;16.70;81.70;;;;;;5040538;28;19916;-75
2023/05/30 01:39:10;;;;;;;;;;;16.60;81.80;;;;;;5035087;28;20460;-75
2023/05/30 01:41:36;;;;;;;;;;;16.60;82.20;;;;;;5025353;28;19935;-75
2023/05/30 01:44:24;;;;;;;;;;;16.60;82.50;;;;;;5019251;28;19913;-75
2023/05/30 01:46:58;;;;;;;;;;;16.60;82.30;;;;;;5017556;28;20481;-76
2023/05/30 01:49:32;;;;;;;;;;;16.50;82.70;;;;;;5577739;23;20501;-75
2023/05/30 01:55:04;;;;;;;;;;;16.50;83.50;;;;;;5023734;28;19954;-76
2023/05/30 02:00:33;;;;;;;;;;;16.40;83.80;;;;;;5024034;28;19916;-75
2023/05/30 02:06:01;;;;;;;;;;;16.40;84.20;;;;;;5023749;28;19959;-75
2023/05/30 02:11:30;;;;;;;;;;;16.40;84.40;;;;;;5023568;28;19956;-75
2023/05/30 02:17:02;;;;;;;;;;;16.40;84.30;;;;;;5023602;28;20002;-75
2023/05/30 02:19:32;;;;;;;;;;;16.40;84.10;;;;;;5026363;28;20028;-75
2023/05/30 02:21:57;;;;;;;;;;;16.40;84.30;;;;;;5019993;28;19917;-76
2023/05/30 02:24:24;;;;;;;;;;;16.40;84.40;;;;;;5034490;28;20458;-75
2023/05/30 02:26:51;;;;;;;;;;;16.40;84.20;;;;;;5023781;28;19909;-75
2023/05/30 02:29:26;;;;;;;;;;;16.40;84.30;;;;;;5023004;28;20003;-75
2023/05/30 02:31:53;;;;;;;;;;;16.40;84.20;;;;;;5025897;28;19962;-75
2023/05/30 02:34:20;;;;;;;;;;;16.40;84.20;;;;;;5026860;28;19943;-75
2023/05/30 02:36:47;;;;;;;;;;;16.40;84.50;;;;;;5020130;28;19909;-75
2023/05/30 02:39:16;;;;;;;;;;;16.40;84.80;;;;;;5033423;28;19914;-76
2023/05/30 02:41:41;;;;;;;;;;;16.30;85.30;;;;;;5023589;28;19942;-75
2023/05/30 02:44:13;;;;;;;;;;;16.20;86.40;;;;;;5023922;28;19909;-76
2023/05/30 02:46:39;;;;;;;;;;;16.10;85.80;;;;;;5024620;28;19917;-76
2023/05/30 02:49:05;;;;;;;;;;;16.00;86.70;;;;;;5018473;28;19922;-75
2023/05/30 02:51:33;;;;;;;;;;;16.00;86.60;;;;;;5028673;28;19924;-75
2023/05/30 02:53:59;;;;;;;;;;;16.00;87.70;;;;;;5027912;28;21279;-76
2023/05/30 02:56:27;;;;;;;;;;;15.90;87.10;;;;;;5028393;28;19909;-75
2023/05/30 02:58:56;;;;;;;;;;;16.10;86.80;;;;;;5040971;28;19925;-75
2023/05/30 03:01:33;;;;;;;;;;;16.10;86.80;;;;;;5039251;28;19909;-75
2023/05/30 03:03:59;;;;;;;;;;;16.20;86.80;;;;;;5039336;28;20593;-75
2023/05/30 03:06:25;;;;;;;;;;;16.20;87.10;;;;;;5024992;28;19921;-75
2023/05/30 03:08:59;;;;;;;;;;;16.20;86.90;;;;;;5041154;28;20521;-75
2023/05/30 03:11:28;;;;;;;;;;;16.20;87.60;;;;;;5026118;28;19999;-75
2023/05/30 03:13:57;;;;;;;;;;;16.10;87.80;;;;;;5037022;28;19966;-76
2023/05/30 03:16:24;;;;;;;;;;;16.00;88.90;;;;;;5023344;28;19975;-76
2023/05/30 03:18:55;;;;;;;;;;;16.10;88.10;;;;;;5045866;28;19920;-76
2023/05/30 03:21:24;;;;;;;;;;;16.10;87.80;;;;;;5029898;28;19909;-76
2023/05/30 03:23:51;;;;;;;;;;;16.10;88.00;;;;;;5024789;28;19909;-76
2023/05/30 03:26:16;;;;;;;;;;;16.20;88.10;;;;;;5035166;28;20514;-75
2023/05/30 03:28:44;;;;;;;;;;;16.20;88.10;;;;;;5020251;28;19909;-75
2023/05/30 03:31:16;;;;;;;;;;;16.20;88.30;;;;;;5046094;28;19917;-75
2023/05/30 03:33:51;;;;;;;;;;;16.20;88.50;;;;;;5026136;28;19917;-76
2023/05/30 03:36:24;;;;;;;;;;;16.20;88.50;;;;;;5023603;28;19916;-75
2023/05/30 03:38:50;;;;;;;;;;;16.20;88.50;;;;;;5028650;28;19913;-76
2023/05/30 03:41:19;;;;;;;;;;;16.30;88.10;;;;;;5026167;28;19993;-75
2023/05/30 03:43:46;;;;;;;;;;;16.40;87.60;;;;;;5026097;28;20341;-75
2023/05/30 03:46:16;;;;;;;;;;;16.40;87.50;;;;;;5030283;28;20003;-75
2023/05/30 03:48:42;;;;;;;;;;;16.50;87.60;;;;;;5025468;28;20327;-75
2023/05/30 03:51:09;;;;;;;;;;;16.60;87.50;;;;;;5023895;28;19921;-76
2023/05/30 03:53:41;;;;;;;;;;;16.60;87.30;;;;;;5029210;28;19959;-76
2023/05/30 03:56:06;;;;;;;;;;;16.70;87.30;;;;;;5043886;28;19931;-76
2023/05/30 03:58:35;;;;;;;;;;;16.70;87.10;;;;;;5040555;28;19921;-75
2023/05/30 04:01:01;;;;;;;;;;;16.80;86.90;;;;;;5026517;28;19924;-75
2023/05/30 04:03:28;;;;;;;;;;;16.90;87.10;;;;;;5025045;28;19913;-75
2023/05/30 04:05:55;;;;;;;;;;;16.90;86.70;;;;;;5040400;28;19909;-75
2023/05/30 04:08:22;;;;;;;;;;;17.00;86.60;;;;;;5023966;28;19959;-75
2023/05/30 04:10:48;;;;;;;;;;;17.00;86.70;;;;;;5044806;28;20461;-75
2023/05/30 04:13:15;;;;;;;;;;;17.00;86.60;;;;;;5030497;28;20313;-75
2023/05/30 04:15:44;;;;;;;;;;;17.10;87.60;;;;;;5019966;28;20320;-75
2023/05/30 04:18:12;;;;;;;;;;;17.20;86.80;;;;;;5024772;28;19959;-76
2023/05/30 04:20:37;;;;;;;;;;;17.30;85.90;;;;;;5024740;28;19909;-75
2023/05/30 04:23:03;;;;;;;;;;;17.40;85.90;;;;;;5030638;28;20012;-76
2023/05/30 04:25:33;;;;;;;;;;;17.40;85.90;;;;;;5036275;28;19918;-76
2023/05/30 04:28:05;;;;;;;;;;;17.50;86.10;;;;;;5022253;28;19967;-76
2023/05/30 04:30:33;;;;;;;;;;;17.50;85.90;;;;;;5023321;28;21352;-75
2023/05/30 04:32:59;;;;;;;;;;;17.40;86.10;;;;;;5025225;28;19923;-75
2023/05/30 04:35:28;;;;;;;;;;;17.50;85.90;;;;;;5025105;28;19910;-76
2023/05/30 04:37:53;;;;;;;;;;;17.50;86.10;;;;;;5018188;28;20441;-75
2023/05/30 04:40:19;;;;;;;;;;;17.60;85.50;;;;;;5038928;28;19917;-76
2023/05/30 04:42:51;;;;;;;;;;;17.70;84.80;;;;;;5027122;28;19917;-74
2023/05/30 04:45:36;;;;;;;;;;;17.70;85.10;;;;;;5023025;28;19952;-75
2023/05/30 04:48:04;;;;;;;;;;;17.90;84.90;;;;;;5024840;28;19910;-74
2023/05/30 04:50:33;;;;;;;;;;;18.10;83.90;;;;;;5027720;28;19925;-74
2023/05/30 04:53:05;;;;;;;;;;;18.20;83.60;;;;;;5018890;28;20039;-74
2023/05/30 04:55:44;;;;;;;;;;;18.30;83.60;;;;;;5037700;28;19948;-75
2023/05/30 04:58:16;;;;;;;;;;;18.40;83.20;;;;;;5021918;28;20335;-75
2023/05/30 05:00:51;;;;;;;;;;;18.50;83.90;;;;;;5042882;28;20027;-75
2023/05/30 05:03:17;;;;;;;;;;;18.60;85.10;;;;;;5024486;28;19955;-74
2023/05/30 05:05:43;;;;;;;;;;;18.30;86.10;;;;;;5027670;28;19909;-73
2023/05/30 05:08:10;;;;;;;;;;;18.30;85.50;;;;;;5022174;28;19913;-72
2023/05/30 05:10:36;;;;;;;;;;;18.40;87.20;;;;;;5025609;28;20003;-73
2023/05/30 05:13:03;;;;;;;;;;;18.50;84.30;;;;;;5020338;28;19913;-74
2023/05/30 05:15:37;;;;;;;;;;;18.90;84.20;;;;;;5028469;28;19950;-77
2023/05/30 05:18:04;;;;;;;;;;;19.10;83.00;;;;;;5025146;28;19917;-73
2023/05/30 05:20:32;;;;;;;;;;;19.20;85.50;;;;;;5023492;28;19984;-73
2023/05/30 05:22:59;;;;;;;;;;;19.30;83.40;;;;;;5030920;28;20260;-73
2023/05/30 05:25:25;;;;;;;;;;;19.60;82.40;;;;;;5026412;28;19917;-73
2023/05/30 05:27:51;;;;;;;;;;;19.80;81.90;;;;;;5038027;28;19912;-73
2023/05/30 05:30:17;;;;;;;;;;;20.00;81.20;;;;;;5038377;28;19913;-73
2023/05/30 05:32:43;;;;;;;;;;;20.10;81.00;;;;;;5030307;28;19913;-73
2023/05/30 05:35:09;;;;;;;;;;;20.10;80.60;;;;;;5030147;28;20388;-73
2023/05/30 05:37:35;;;;;;;;;;;20.00;81.00;;;;;;5021769;28;19917;-72
2023/05/30 05:40:05;;;;;;;;;;;20.20;81.10;;;;;;5028875;28;20383;-76
2023/05/30 05:42:35;;;;;;;;;;;20.30;80.20;;;;;;5029440;28;19915;-75
2023/05/30 05:45:01;;;;;;;;;;;20.50;80.20;;;;;;5024654;28;19909;-75
2023/05/30 05:47:28;;;;;;;;;;;20.50;79.20;;;;;;5028964;28;19961;-75
2023/05/30 05:49:54;;;;;;;;;;;20.70;78.40;;;;;;5041418;28;19917;-75
2023/05/30 05:52:26;;;;;;;;;;;20.80;78.90;;;;;;5029339;28;19982;-75
2023/05/30 05:54:53;;;;;;;;;;;20.70;78.70;;;;;;5039248;28;19910;-75
2023/05/30 05:57:20;;;;;;;;;;;20.60;78.30;;;;;;5038162;28;19945;-75
2023/05/30 05:59:46;;;;;;;;;;;20.80;78.00;;;;;;5026257;28;19935;-75
2023/05/30 06:02:13;;;;;;;;;;;20.90;78.20;;;;;;5021852;28;19909;-76
2023/05/30 06:04:39;;;;;;;;;;;21.10;78.50;;;;;;5036230;28;19924;-75
2023/05/30 06:07:05;;;;;;;;;;;21.40;77.40;;;;;;5023659;28;19909;-75
2023/05/30 06:09:34;;;;;;;;;;;21.70;76.20;;;;;;5041658;28;19924;-75
2023/05/30 06:12:07;;;;;;;;;;;21.80;75.50;;;;;;5024611;28;19999;-75
2023/05/30 06:14:40;;;;;;;;;;;22.10;74.90;;;;;;5022215;28;19932;-75
2023/05/30 06:17:07;;;;;;;;;;;22.70;73.30;;;;;;5021093;28;19971;-75
2023/05/30 06:19:35;;;;;;;;;;;23.40;73.20;;;;;;5024375;28;20566;-76
2023/05/30 06:22:10;;;;;;;;;;;24.60;69.80;;;;;;5022815;28;19921;-76
2023/05/30 06:24:36;;;;;;;;;;;25.20;69.20;;;;;;5018561;28;20390;-76
2023/05/30 06:27:02;;;;;;;;;;;25.90;66.40;;;;;;5039123;28;19909;-75
2023/05/30 06:29:29;;;;;;;;;;;26.90;65.70;;;;;;5035513;28;19924;-76
2023/05/30 06:31:56;;;;;;;;;;;28.30;63.50;;;;;;5026830;28;19909;-75
2023/05/30 06:34:28;;;;;;;;;;;28.00;62.10;;;;;;5035134;28;19913;-76
2023/05/30 06:36:55;;;;;;;;;;;28.80;62.10;;;;;;5022062;28;20236;-76
2023/05/30 06:39:24;;;;;;;;;;;29.40;60.20;;;;;;5026001;28;19913;-75
2023/05/30 06:41:49;;;;;;;;;;;27.30;60.80;;;;;;5025227;28;19923;-76
2023/05/30 06:44:15;;;;;;;;;;;27.50;61.40;;;;;;5041394;28;19909;-75
2023/05/30 06:46:41;;;;;;;;;;;28.30;61.20;;;;;;5029030;28;19917;-75
2023/05/30 06:49:14;;;;;;;;;;;29.00;60.10;;;;;;5022948;28;19916;-76
2023/05/30 06:51:39;;;;;;;;;;;29.70;58.60;;;;;;5037364;28;20899;-76
2023/05/30 06:54:07;;;;;;;;;;;29.50;58.70;;;;;;5026595;28;19988;-75
2023/05/30 06:56:36;;;;;;;;;;;30.20;58.00;;;;;;5019370;28;19909;-76
2023/05/30 06:59:02;;;;;;;;;;;30.70;57.10;;;;;;5023238;28;19917;-75
2023/05/30 07:01:33;;;;;;;;;;;32.00;56.00;;;;;;5020953;28;20040;-76
2023/05/30 07:04:00;;;;;;;;;;;32.50;54.40;;;;;;5022439;28;20015;-76
2023/05/30 07:06:28;;;;;;;;;;;32.70;55.20;;;;;;5029336;28;20008;-76
2023/05/30 07:08:53;;;;;;;;;;;33.00;53.40;;;;;;5037907;28;19914;-76
2023/05/30 07:11:20;;;;;;;;;;;32.80;52.80;;;;;;5042331;28;19920;-75
2023/05/30 07:13:55;;;;;;;;;;;31.20;53.80;;;;;;5021840;28;19917;-76
2023/05/30 07:16:30;;;;;;;;;;;32.00;54.30;;;;;;5034902;28;19920;-76
2023/05/30 07:18:56;;;;;;;;;;;32.30;53.80;;;;;;5019121;28;19949;-76
2023/05/30 07:21:21;;;;;;;;;;;32.80;53.00;;;;;;5039655;28;20369;-76
2023/05/30 07:23:47;;;;;;;;;;;32.90;51.90;;;;;;5020003;28;20404;-77
2023/05/30 07:26:13;;;;;;;;;;;31.40;53.30;;;;;;5014734;28;19913;-76
2023/05/30 07:28:39;;;;;;;;;;;32.10;53.20;;;;;;5023971;28;19917;-76
2023/05/30 07:31:04;;;;;;;;;;;32.80;52.90;;;;;;5011550;28;19909;-76
2023/05/30 07:33:31;;;;;;;;;;;33.50;51.90;;;;;;5022798;28;20297;-76
2023/05/30 07:41:34;;;;;;;;;;;34.20;52.50;;;;;;4947844;28;19917;-76
2023/05/30 07:47:03;;;;;;;;;;;31.60;52.30;;;;;;4950892;29;19929;-76
2023/05/30 07:52:32;;;;;;;;;;;33.80;52.40;;;;;;4947617;28;20606;-76
2023/05/30 07:58:01;;;;;;;;;;;35.50;50.20;;;;;;4944120;29;19977;-77
2023/05/30 08:03:30;;;;;;;;;;;34.10;50.40;;;;;;4947480;28;19981;-77
2023/05/30 08:08:59;;;;;;;;;;;36.40;49.00;;;;;;4944225;28;19916;-76
2023/05/30 08:14:27;;;;;;;;;;;34.50;50.10;;;;;;4943639;29;20008;-77
2023/05/30 08:19:56;;;;;;;;;;;30.00;55.20;;;;;;4946114;28;19926;-77
2023/05/30 08:22:26;;;;;;;;;;;28.80;56.80;;;;;;4932966;28;19918;-76
2023/05/30 08:24:54;;;;;;;;;;;29.10;57.30;;;;;;4948960;28;19911;-76
2023/05/30 08:27:27;;;;;;;;;;;29.60;56.90;;;;;;4945274;28;19921;-76
2023/05/30 08:29:56;;;;;;;;;;;30.30;56.00;;;;;;4922237;28;20131;-78
2023/05/30 08:32:28;;;;;;;;;;;30.90;55.40;;;;;;4947624;28;19917;-76
2023/05/30 08:34:57;;;;;;;;;;;31.10;55.20;;;;;;4926667;28;19910;-78
2023/05/30 08:37:22;;;;;;;;;;;32.20;54.30;;;;;;4935872;28;20029;-77
2023/05/30 08:39:48;;;;;;;;;;;30.30;54.90;;;;;;4928178;29;20406;-78
2023/05/30 08:42:16;;;;;;;;;;;30.60;57.00;;;;;;4946248;28;19917;-77
2023/05/30 08:44:42;;;;;;;;;;;31.40;55.30;;;;;;4932703;28;19918;-76
2023/05/30 08:47:11;;;;;;;;;;;31.20;54.30;;;;;;4922114;28;19910;-77
2023/05/30 08:49:42;;;;;;;;;;;32.00;55.40;;;;;;4928955;28;19910;-77
2023/05/30 08:52:11;;;;;;;;;;;32.70;54.90;;;;;;4951594;28;20240;-76
2023/05/30 08:54:40;;;;;;;;;;;32.80;54.10;;;;;;4942869;28;19917;-76
2023/05/30 08:57:10;;;;;;;;;;;33.20;53.20;;;;;;5481050;23;19926;-76
2023/05/30 09:02:39;;;;;;;;;;;32.30;53.70;;;;;;4946362;29;20485;-78
2023/05/30 09:08:08;;;;;;;;;;;31.10;55.10;;;;;;4947942;29;19945;-78
2023/05/30 09:13:37;;;;;;;;;;;32.20;53.30;;;;;;4943955;29;19960;-78
2023/05/30 09:19:07;;;;;;;;;;;28.10;56.50;;;;;;4951771;28;19921;-78
2023/05/30 09:21:42;;;;;;;;;;;28.00;57.10;;;;;;4929579;28;19919;-77
2023/05/30 09:24:08;;;;;;;;;;;27.80;58.40;;;;;;4939747;28;19911;-77
2023/05/30 09:26:35;;;;;;;;;;;27.40;58.50;;;;;;4943114;28;19925;-77
2023/05/30 09:29:12;;;;;;;;;;;27.70;59.00;;;;;;4945291;28;19929;-78
2023/05/30 09:31:38;;;;;;;;;;;27.90;58.70;;;;;;4933594;28;19914;-78
2023/05/30 09:34:07;;;;;;;;;;;29.30;57.20;;;;;;4946895;28;19915;-78
2023/05/30 09:36:33;;;;;;;;;;;30.70;56.40;;;;;;4929714;29;20422;-78
2023/05/30 09:39:02;;;;;;;;;;;30.70;55.20;;;;;;4944047;28;20032;-77
2023/05/30 09:41:32;;;;;;;;;;;30.10;55.60;;;;;;4945881;28;19918;-78
2023/05/30 09:44:03;;;;;;;;;;;28.90;57.70;;;;;;4941852;28;19918;-77
2023/05/30 09:46:32;;;;;;;;;;;28.80;56.90;;;;;;4925038;28;19919;-77
2023/05/30 09:49:02;;;;;;;;;;;28.90;57.90;;;;;;4927912;28;20088;-78
2023/05/30 09:51:29;;;;;;;;;;;29.70;57.10;;;;;;4945649;28;19957;-78
2023/05/30 09:53:55;;;;;;;;;;;30.30;55.80;;;;;;4938935;28;19910;-79
2023/05/30 09:56:41;;;;;;;;;;;31.10;55.20;;;;;;4947169;28;19926;-79
2023/05/30 09:59:15;;;;;;;;;;;31.60;55.20;;;;;;4928017;28;19926;-79
2023/05/30 10:01:40;;;;;;;;;;;31.40;54.20;;;;;;4948084;28;19918;-79
2023/05/30 10:04:20;;;;;;;;;;;30.50;55.20;;;;;;4927523;28;19918;-79
2023/05/30 10:06:48;;;;;;;;;;;29.80;56.10;;;;;;4929067;29;19918;-79
2023/05/30 10:09:23;;;;;;;;;;;31.30;54.00;;;;;;4946479;28;19965;-78
2023/05/30 10:11:52;;;;;;;;;;;32.40;53.80;;;;;;4924660;29;19911;-77
2023/05/30 10:14:20;;;;;;;;;;;30.60;53.60;;;;;;4941463;28;19961;-79
2023/05/30 10:17:00;;;;;;;;;;;30.30;55.20;;;;;;4927048;28;19925;-80
2023/05/30 10:19:46;;;;;;;;;;;29.60;54.40;;;;;;4946784;28;20226;-78
2023/05/30 10:22:25;;;;;;;;;;;29.40;53.80;;;;;;4946464;28;19925;-78
2023/05/30 10:24:51;;;;;;;;;;;29.20;54.60;;;;;;4939715;28;19917;-74
2023/05/30 10:27:24;;;;;;;;;;;31.00;53.40;;;;;;4944136;28;20276;-76
2023/05/30 10:29:56;;;;;;;;;;;32.20;52.80;;;;;;4941020;28;19914;-74
2023/05/30 10:32:25;;;;;;;;;;;32.30;51.80;;;;;;4945936;28;19993;-75
2023/05/30 10:34:59;;;;;;;;;;;32.50;50.60;;;;;;4941226;28;19917;-75
2023/05/30 10:37:25;;;;;;;;;;;31.10;52.40;;;;;;4929456;28;20289;-76
2023/05/30 10:40:09;;;;;;;;;;;30.10;54.20;;;;;;4942942;28;19980;-75
2023/05/30 10:42:56;;;;;;;;;;;29.60;54.90;;;;;;4949121;28;19922;-74
2023/05/30 10:45:42;;;;;;;;;;;29.30;53.70;;;;;;4925757;28;20051;-75
2023/05/30 10:48:18;;;;;;;;;;;30.80;52.90;;;;;;4943656;28;19910;-74
2023/05/30 10:50:46;;;;;;;;;;;32.70;50.90;;;;;;4933736;28;20277;-75
2023/05/30 10:53:14;;;;;;;;;;;31.90;51.50;;;;;;4945290;28;20340;-74
2023/05/30 10:55:42;;;;;;;;;;;29.60;53.60;;;;;;4942609;28;19918;-73
2023/05/30 10:58:26;;;;;;;;;;;27.50;56.70;;;;;;4944984;28;19925;-72
2023/05/30 11:00:52;;;;;;;;;;;27.70;57.40;;;;;;4940030;28;19990;-72
2023/05/30 11:03:36;;;;;;;;;;;28.70;57.30;;;;;;4939461;28;19914;-72
2023/05/30 11:06:05;;;;;;;;;;;28.50;56.50;;;;;;4947400;28;20006;-73
2023/05/30 11:08:31;;;;;;;;;;;27.50;57.10;;;;;;4945911;28;19953;-71
2023/05/30 11:10:57;;;;;;;;;;;26.00;59.40;;;;;;4949977;28;19945;-71
2023/05/30 11:13:25;;;;;;;;;;;26.00;60.10;;;;;;4941832;28;19932;-72
2023/05/30 11:15:51;;;;;;;;;;;26.20;60.00;;;;;;4947484;28;20370;-71
2023/05/30 11:18:17;;;;;;;;;;;26.50;58.20;;;;;;4950964;28;19926;-71
2023/05/30 11:20:52;;;;;;;;;;;26.20;58.50;;;;;;4944375;28;20088;-72
2023/05/30 11:23:19;;;;;;;;;;;26.80;58.80;;;;;;4944870;28;19914;-71
2023/05/30 11:25:45;;;;;;;;;;;27.00;59.10;;;;;;4935820;28;20391;-72
2023/05/30 11:28:15;;;;;;;;;;;27.40;57.00;;;;;;4950800;28;19965;-72
2023/05/30 11:30:47;;;;;;;;;;;26.80;58.00;;;;;;4946081;28;20253;-72
2023/05/30 11:33:14;;;;;;;;;;;25.40;57.80;;;;;;4936414;29;19911;-72
2023/05/30 11:35:44;;;;;;;;;;;25.40;59.20;;;;;;4928541;29;19950;-72
2023/05/30 11:38:15;;;;;;;;;;;25.10;59.40;;;;;;4947540;28;20683;-72
2023/05/30 11:40:41;;;;;;;;;;;24.90;59.50;;;;;;4947802;28;21409;-72
2023/05/30 11:43:06;;;;;;;;;;;25.60;57.60;;;;;;4933877;28;20251;-72
2023/05/30 11:45:32;;;;;;;;;;;26.20;57.10;;;;;;4942926;28;19911;-72
2023/05/30 11:48:08;;;;;;;;;;;26.00;57.10;;;;;;4947906;28;19919;-72
2023/05/30 11:50:40;;;;;;;;;;;25.30;58.80;;;;;;4946714;28;19910;-72
2023/05/30 11:53:09;;;;;;;;;;;24.90;60.10;;;;;;4946344;28;20075;-72
2023/05/30 11:55:35;;;;;;;;;;;24.70;60.20;;;;;;4928828;29;19917;-72
2023/05/30 11:58:00;;;;;;;;;;;25.20;59.90;;;;;;4944749;28;19927;-72
2023/05/30 12:00:26;;;;;;;;;;;25.30;59.50;;;;;;4952083;28;20805;-73
2023/05/30 12:02:52;;;;;;;;;;;25.10;59.30;;;;;;4925851;28;19962;-71
2023/05/30 12:05:18;;;;;;;;;;;25.40;58.90;;;;;;4933545;28;19914;-72
2023/05/30 12:07:44;;;;;;;;;;;24.90;58.90;;;;;;4941512;28;19997;-72
2023/05/30 12:10:09;;;;;;;;;;;24.90;59.10;;;;;;4947269;28;20113;-71
2023/05/30 12:12:35;;;;;;;;;;;25.10;59.20;;;;;;4931842;29;20361;-72
2023/05/30 12:15:01;;;;;;;;;;;25.70;59.00;;;;;;4941207;28;20414;-72
2023/05/30 12:17:28;;;;;;;;;;;26.60;57.80;;;;;;4934934;28;19918;-72
2023/05/30 12:19:55;;;;;;;;;;;27.10;55.70;;;;;;4947776;28;19914;-72
2023/05/30 12:22:22;;;;;;;;;;;27.30;55.80;;;;;;4945067;28;20020;-72
2023/05/30 12:24:49;;;;;;;;;;;27.10;57.10;;;;;;4946579;28;20282;-71
2023/05/30 12:27:16;;;;;;;;;;;27.20;55.50;;;;;;4941188;28;20340;-72
2023/05/30 12:29:42;;;;;;;;;;;26.80;56.50;;;;;;4935158;28;20399;-75
2023/05/30 12:32:12;;;;;;;;;;;26.30;56.30;;;;;;4930684;28;20009;-75
2023/05/30 12:34:48;;;;;;;;;;;26.10;57.70;;;;;;4947627;28;20267;-76
2023/05/30 12:37:20;;;;;;;;;;;26.20;56.80;;;;;;4943421;28;20005;-75
2023/05/30 12:39:47;;;;;;;;;;;25.80;56.60;;;;;;4951926;28;19921;-75
2023/05/30 12:42:19;;;;;;;;;;;25.80;56.20;;;;;;4933187;28;19914;-75
2023/05/30 12:44:48;;;;;;;;;;;25.80;55.50;;;;;;4945677;28;19910;-75
2023/05/30 12:47:15;;;;;;;;;;;26.00;56.10;;;;;;4945518;28;19964;-75
2023/05/30 12:49:41;;;;;;;;;;;26.10;56.30;;;;;;4946331;28;19919;-76
2023/05/30 12:52:07;;;;;;;;;;;26.50;56.40;;;;;;4935615;28;20444;-76
2023/05/30 12:54:33;;;;;;;;;;;26.60;54.70;;;;;;4943609;28;19969;-75
2023/05/30 12:57:01;;;;;;;;;;;26.40;55.10;;;;;;4931537;28;19918;-75
2023/05/30 12:59:27;;;;;;;;;;;26.40;54.10;;;;;;4948834;28;19932;-75
2023/05/30 13:01:54;;;;;;;;;;;26.80;53.50;;;;;;4937219;28;19911;-75
2023/05/30 13:04:28;;;;;;;;;;;26.40;53.70;;;;;;4932194;28;19937;-75
2023/05/30 13:06:55;;;;;;;;;;;26.50;55.70;;;;;;4940968;28;19910;-75
2023/05/30 13:09:21;;;;;;;;;;;26.60;56.00;;;;;;4942208;28;19947;-75
2023/05/30 13:11:48;;;;;;;;;;;26.90;54.40;;;;;;4944675;28;20877;-75
2023/05/30 13:14:15;;;;;;;;;;;26.80;55.00;;;;;;4937211;28;19917;-76
2023/05/30 13:16:46;;;;;;;;;;;27.10;55.20;;;;;;4946715;28;19919;-75
2023/05/30 13:19:15;;;;;;;;;;;27.10;54.50;;;;;;4929580;28;19961;-75
2023/05/30 13:21:41;;;;;;;;;;;26.70;54.50;;;;;;4933752;28;19925;-75
2023/05/30 13:24:07;;;;;;;;;;;27.10;55.30;;;;;;4952424;28;19918;-74
2023/05/30 13:26:40;;;;;;;;;;;27.00;54.50;;;;;;4943925;28;19911;-75
2023/05/30 13:29:06;;;;;;;;;;;27.20;54.80;;;;;;4948556;28;20276;-75
2023/05/30 13:31:41;;;;;;;;;;;26.60;53.50;;;;;;4928818;28;19915;-76
2023/05/30 13:34:07;;;;;;;;;;;26.40;53.90;;;;;;4932157;28;20005;-75
2023/05/30 13:36:33;;;;;;;;;;;26.50;53.90;;;;;;4949938;28;19986;-75
2023/05/30 13:39:03;;;;;;;;;;;26.80;54.70;;;;;;4925508;28;19926;-75
2023/05/30 13:41:28;;;;;;;;;;;26.80;54.40;;;;;;4949451;28;20283;-75
2023/05/30 13:44:03;;;;;;;;;;;26.60;54.80;;;;;;4932124;28;19917;-76
2023/05/30 13:46:39;;;;;;;;;;;26.40;54.50;;;;;;4953210;28;19962;-75
2023/05/30 13:49:07;;;;;;;;;;;25.80;55.90;;;;;;4928530;28;19915;-75
2023/05/30 13:51:33;;;;;;;;;;;25.60;56.00;;;;;;4951277;28;20427;-74
2023/05/30 13:54:03;;;;;;;;;;;25.70;56.10;;;;;;4948938;28;20416;-74
2023/05/30 13:56:30;;;;;;;;;;;25.90;55.00;;;;;;4931341;28;19918;-76
2023/05/30 13:58:55;;;;;;;;;;;25.60;55.70;;;;;;4946906;28;19918;-75
2023/05/30 14:01:24;;;;;;;;;;;25.90;55.50;;;;;;4940923;28;19933;-76
2023/05/30 14:03:56;;;;;;;;;;;26.10;54.70;;;;;;4942491;28;20360;-77
2023/05/30 14:06:25;;;;;;;;;;;25.80;55.30;;;;;;4945803;28;19914;-78
2023/05/30 14:08:58;;;;;;;;;;;25.90;56.00;;;;;;4925143;28;19942;-75
2023/05/30 14:11:27;;;;;;;;;;;25.70;55.60;;;;;;4950024;28;19918;-75
2023/05/30 14:13:59;;;;;;;;;;;25.70;57.40;;;;;;4944183;28;19917;-76
2023/05/30 14:16:26;;;;;;;;;;;25.70;56.50;;;;;;4931015;28;19911;-76
2023/05/30 14:18:54;;;;;;;;;;;25.90;56.20;;;;;;4952518;28;19976;-76
2023/05/30 14:21:28;;;;;;;;;;;26.10;55.80;;;;;;4932103;28;19961;-76
2023/05/30 14:23:55;;;;;;;;;;;25.60;56.20;;;;;;4940654;28;19918;-77
2023/05/30 14:26:28;;;;;;;;;;;25.20;57.00;;;;;;4947288;28;19918;-79
2023/05/30 14:28:54;;;;;;;;;;;25.20;57.40;;;;;;4941509;28;19910;-73
2023/05/30 14:31:21;;;;;;;;;;;25.20;57.50;;;;;;4944836;28;19922;-73
2023/05/30 14:33:49;;;;;;;;;;;24.90;58.60;;;;;;4941673;28;19910;-73
2023/05/30 14:36:16;;;;;;;;;;;25.10;57.80;;;;;;4925457;28;19918;-73
2023/05/30 14:38:43;;;;;;;;;;;24.60;57.30;;;;;;4946317;28;19937;-73
2023/05/30 14:41:11;;;;;;;;;;;24.60;58.40;;;;;;4950612;28;20352;-74
2023/05/30 14:43:36;;;;;;;;;;;24.50;57.90;;;;;;4943366;28;19910;-73
2023/05/30 14:46:03;;;;;;;;;;;24.70;58.30;;;;;;4946326;28;20364;-76
2023/05/30 14:48:28;;;;;;;;;;;24.80;58.50;;;;;;4926368;28;19925;-74
2023/05/30 14:50:55;;;;;;;;;;;24.70;58.30;;;;;;4944910;28;19911;-74
2023/05/30 14:53:22;;;;;;;;;;;24.70;57.30;;;;;;4949557;28;19914;-75
2023/05/30 14:55:49;;;;;;;;;;;24.30;58.10;;;;;;4944889;28;19910;-75
2023/05/30 14:58:14;;;;;;;;;;;24.10;58.40;;;;;;4949389;28;19934;-76
2023/05/30 15:00:40;;;;;;;;;;;24.20;58.80;;;;;;4953369;28;19965;-76
2023/05/30 15:03:12;;;;;;;;;;;24.50;59.00;;;;;;4951171;28;19918;-76
2023/05/30 15:05:39;;;;;;;;;;;24.50;57.70;;;;;;4938925;28;19918;-77
2023/05/30 15:08:23;;;;;;;;;;;24.40;57.90;;;;;;4947219;28;20479;-76
2023/05/30 15:10:56;;;;;;;;;;;24.50;57.60;;;;;;4951152;28;19945;-76
2023/05/30 15:13:24;;;;;;;;;;;24.20;56.90;;;;;;4944792;28;19917;-76
2023/05/30 15:15:55;;;;;;;;;;;24.00;57.70;;;;;;4944977;28;19926;-76
2023/05/30 15:18:21;;;;;;;;;;;23.80;58.40;;;;;;4948786;28;19918;-76
2023/05/30 15:20:47;;;;;;;;;;;23.80;58.40;;;;;;4943621;28;19914;-77